createdAt,value
2019-05-16T00:01:55.812Z,8.77
2019-05-16T00:04:23.358Z,8.82
2019-05-16T00:06:50.097Z,8.80
2019-05-16T00:09:18.331Z,8.78
2019-05-16T00:11:45.388Z,8.78
2019-05-16T00:14:12.875Z,8.83
2019-05-16T00:16:39.659Z,8.75
2019-05-16T00:19:08.840Z,8.73
2019-05-16T00:21:35.202Z,8.61
2019-05-16T00:24:02.051Z,8.63
2019-05-16T00:26:28.950Z,8.66
2019-05-16T00:28:55.702Z,8.59
2019-05-16T00:31:22.828Z,8.53
2019-05-16T00:33:49.581Z,8.49
2019-05-16T00:36:18.697Z,8.52
2019-05-16T00:38:45.170Z,8.47
2019-05-16T00:41:12.066Z,8.45
2019-05-16T00:43:38.820Z,8.43
2019-05-16T00:46:08.067Z,8.36
2019-05-16T00:48:34.484Z,8.33
2019-05-16T00:51:01.417Z,8.39
2019-05-16T00:53:28.874Z,8.32
2019-05-16T00:55:55.797Z,8.33
2019-05-16T00:58:22.605Z,8.34
2019-05-16T01:00:50.316Z,8.22
2019-05-16T01:03:20.050Z,8.18
2019-05-16T01:05:48.052Z,8.25
2019-05-16T01:08:15.137Z,8.24
2019-05-16T01:10:42.759Z,8.25
2019-05-16T01:13:09.803Z,8.24
2019-05-16T01:15:37.992Z,8.15
2019-05-16T01:18:07.874Z,8.15
2019-05-16T01:20:34.354Z,8.24
2019-05-16T01:23:01.165Z,8.24
2019-05-16T01:25:28.265Z,8.24
2019-05-16T01:27:55.040Z,8.30
2019-05-16T01:30:21.789Z,8.19
2019-05-16T01:32:49.298Z,8.17
2019-05-16T01:35:16.155Z,8.18
2019-05-16T01:37:42.941Z,8.16
2019-05-16T01:40:09.694Z,8.10
2019-05-16T01:42:38.569Z,8.06
2019-05-16T01:45:08.099Z,8.02
2019-05-16T01:47:34.483Z,8.04
2019-05-16T01:50:01.317Z,7.96
2019-05-16T01:52:29.097Z,8.03
2019-05-16T01:54:56.060Z,7.96
2019-05-16T01:57:23.179Z,8.01
2019-05-16T01:59:49.965Z,8.02
2019-05-16T02:02:18.374Z,8.05
2019-05-16T02:04:45.321Z,8.10
2019-05-16T02:07:12.061Z,8.11
2019-05-16T02:09:38.872Z,8.11
2019-05-16T02:12:08.107Z,8.18
2019-05-16T02:14:35.522Z,8.13
2019-05-16T02:17:02.275Z,8.12
2019-05-16T02:19:29.224Z,8.11
2019-05-16T02:21:55.986Z,8.05
2019-05-16T02:24:23.063Z,8.10
2019-05-16T02:26:52.426Z,8.05
2019-05-16T02:29:20.544Z,8.11
2019-05-16T02:31:47.354Z,8.08
2019-05-16T02:34:14.246Z,8.00
2019-05-16T02:36:40.984Z,8.09
2019-05-16T02:39:10.870Z,8.09
2019-05-16T02:41:36.719Z,8.12
2019-05-16T02:44:03.653Z,8.16
2019-05-16T02:46:30.917Z,8.20
2019-05-16T02:49:00.879Z,8.16
2019-05-16T02:51:27.528Z,8.24
2019-05-16T02:53:54.335Z,8.23
2019-05-16T02:56:21.584Z,8.31
2019-05-16T02:58:51.671Z,8.19
2019-05-16T03:01:17.470Z,8.24
2019-05-16T03:03:44.482Z,8.17
2019-05-16T03:06:12.339Z,8.25
2019-05-16T03:08:41.133Z,8.23
2019-05-16T03:11:11.606Z,8.27
2019-05-16T03:13:37.089Z,8.13
2019-05-16T03:16:11.399Z,8.27
2019-05-16T03:18:41.131Z,8.27
2019-05-16T03:21:11.177Z,8.28
2019-05-16T03:23:37.292Z,8.38
2019-05-16T03:26:04.253Z,8.32
2019-05-16T03:28:31.019Z,8.39
2019-05-16T03:31:04.268Z,8.43
2019-05-16T03:33:39.074Z,8.40
2019-05-16T03:35:55.951Z,8.45
2019-05-16T03:38:23.386Z,8.50
2019-05-16T03:40:51.016Z,8.53
2019-05-16T03:43:21.542Z,8.52
2019-05-16T03:45:47.098Z,8.61
2019-05-16T03:48:13.859Z,8.55
2019-05-16T03:50:41.392Z,8.61
2019-05-16T03:53:13.867Z,8.61
2019-05-16T03:55:41.065Z,8.68
2019-05-16T03:58:07.929Z,8.69
2019-05-16T04:00:52.486Z,8.71
2019-05-16T04:03:20.948Z,8.64
2019-05-16T04:05:47.048Z,8.74
2019-05-16T04:08:19.226Z,8.60
2019-05-16T04:10:42.664Z,8.66
2019-05-16T04:13:11.490Z,8.59
2019-05-16T04:15:40.781Z,8.67
2019-05-16T04:18:10.936Z,8.74
2019-05-16T04:20:36.629Z,8.80
2019-05-16T04:23:03.665Z,8.92
2019-05-16T04:25:31.111Z,8.80
2019-05-16T04:28:00.887Z,8.89
2019-05-16T04:30:26.841Z,8.86
2019-05-16T04:32:53.599Z,8.90
2019-05-16T04:35:21.456Z,8.90
2019-05-16T04:37:51.345Z,8.93
2019-05-16T04:40:17.339Z,8.98
2019-05-16T04:42:44.139Z,8.95
2019-05-16T04:45:12.117Z,8.98
2019-05-16T04:47:41.397Z,9.05
2019-05-16T04:50:11.247Z,8.99
2019-05-16T04:52:37.171Z,9.02
2019-05-16T04:55:04.094Z,8.97
2019-05-16T04:57:31.435Z,9.03
2019-05-16T05:00:01.871Z,9.05
2019-05-16T05:02:30.655Z,9.12
2019-05-16T05:04:56.428Z,9.03
2019-05-16T05:07:23.326Z,9.11
2019-05-16T05:09:51.410Z,9.13
2019-05-16T05:12:20.840Z,9.15
2019-05-16T05:14:47.472Z,9.10
2019-05-16T05:17:14.289Z,9.20
2019-05-16T05:19:41.537Z,9.16
2019-05-16T05:22:10.396Z,9.17
2019-05-16T05:24:40.579Z,9.19
2019-05-16T05:27:07.555Z,9.23
2019-05-16T05:29:34.353Z,9.31
2019-05-16T05:32:04.282Z,9.23
2019-05-16T05:34:30.485Z,9.27
2019-05-16T05:36:57.269Z,9.37
2019-05-16T05:39:24.324Z,9.34
2019-05-16T05:41:51.083Z,9.45
2019-05-16T05:44:20.178Z,9.48
2019-05-16T05:46:46.517Z,9.45
2019-05-16T05:49:13.323Z,9.51
2019-05-16T05:51:40.584Z,9.52
2019-05-16T05:54:07.676Z,9.53
2019-05-16T05:56:34.713Z,9.54
2019-05-16T05:59:01.670Z,9.56
2019-05-16T06:01:31.225Z,9.57
2019-05-16T06:03:59.683Z,9.67
2019-05-16T06:06:26.000Z,9.71
2019-05-16T06:08:52.800Z,9.76
2019-05-16T06:11:20.549Z,9.85
2019-05-16T06:13:50.017Z,9.76
2019-05-16T06:16:16.663Z,9.88
2019-05-16T06:18:43.500Z,9.96
2019-05-16T06:21:11.430Z,9.97
2019-05-16T06:23:40.343Z,9.95
2019-05-16T06:26:07.387Z,9.97
2019-05-16T06:28:34.587Z,9.94
2019-05-16T06:31:02.320Z,9.95
2019-05-16T06:33:30.557Z,9.93
2019-05-16T06:36:00.111Z,9.99
2019-05-16T06:38:27.016Z,9.91
2019-05-16T06:40:54.060Z,9.99
2019-05-16T06:43:20.959Z,10.05
2019-05-16T06:45:47.712Z,10.16
2019-05-16T06:48:14.495Z,10.19
2019-05-16T06:50:41.524Z,10.04
2019-05-16T06:53:10.414Z,10.15
2019-05-16T06:55:37.350Z,10.11
2019-05-16T06:58:04.239Z,10.21
2019-05-16T07:00:31.687Z,10.21
2019-05-16T07:03:00.394Z,10.20
2019-05-16T07:05:27.278Z,10.22
2019-05-16T07:07:54.414Z,10.27
2019-05-16T07:10:21.725Z,10.24
2019-05-16T07:12:50.361Z,10.17
2019-05-16T07:15:17.510Z,10.22
2019-05-16T07:17:45.393Z,10.28
2019-05-16T07:20:12.347Z,10.26
2019-05-16T07:22:40.667Z,10.30
2019-05-16T07:25:10.437Z,10.31
2019-05-16T07:27:36.803Z,10.49
2019-05-16T07:30:03.785Z,10.37
2019-05-16T07:32:30.974Z,10.40
2019-05-16T07:35:00.171Z,10.44
2019-05-16T07:37:26.946Z,10.49
2019-05-16T07:39:53.813Z,10.43
2019-05-16T07:42:20.724Z,10.45
2019-05-16T07:44:50.483Z,10.54
2019-05-16T07:47:16.282Z,10.49
2019-05-16T07:49:43.143Z,10.42
2019-05-16T07:52:10.484Z,10.40
2019-05-16T07:54:40.153Z,10.48
2019-05-16T07:57:15.673Z,10.47
2019-05-16T07:59:35.585Z,10.35
2019-05-16T08:02:02.591Z,10.47
2019-05-16T08:04:30.411Z,10.42
2019-05-16T08:06:57.396Z,10.50
2019-05-16T08:09:24.240Z,10.42
2019-05-16T08:11:51.049Z,10.42
2019-05-16T08:14:17.801Z,10.47
2019-05-16T08:16:44.564Z,10.43
2019-05-16T08:19:11.420Z,10.43
2019-05-16T08:21:40.863Z,10.33
2019-05-16T08:24:08.386Z,10.28
2019-05-16T08:26:40.080Z,10.25
2019-05-16T08:29:04.699Z,10.30
2019-05-16T08:31:32.052Z,10.28
2019-05-16T08:34:00.892Z,10.32
2019-05-16T08:36:27.733Z,10.26
2019-05-16T08:38:54.487Z,10.25
2019-05-16T08:41:22.302Z,10.23
2019-05-16T08:43:53.251Z,10.21
2019-05-16T08:46:20.773Z,10.27
2019-05-16T08:48:47.032Z,10.25
2019-05-16T08:51:13.847Z,10.25
2019-05-16T08:53:43.575Z,10.24
2019-05-16T08:56:13.015Z,10.31
2019-05-16T08:58:41.032Z,10.26
2019-05-16T09:01:07.849Z,10.33
2019-05-16T09:03:34.972Z,10.36
2019-05-16T09:06:03.090Z,10.40
2019-05-16T09:08:30.299Z,10.46
2019-05-16T09:11:09.300Z,10.43
2019-05-16T09:13:27.879Z,10.38
2019-05-16T09:15:57.095Z,10.38
2019-05-16T09:18:23.893Z,10.43
2019-05-16T09:20:50.777Z,10.40
2019-05-16T09:23:18.049Z,10.49
2019-05-16T09:25:44.910Z,10.42
2019-05-16T09:28:11.708Z,10.40
2019-05-16T09:30:38.483Z,10.47
2019-05-16T09:33:07.073Z,10.46
2019-05-16T09:35:36.933Z,10.54
2019-05-16T09:38:02.819Z,10.54
2019-05-16T09:40:29.854Z,10.48
2019-05-16T09:42:56.943Z,10.52
2019-05-16T09:45:23.893Z,10.58
2019-05-16T09:47:50.923Z,10.65
2019-05-16T09:50:18.078Z,10.60
2019-05-16T09:52:47.018Z,10.65
2019-05-16T09:55:14.138Z,10.65
2019-05-16T09:57:40.882Z,10.71
2019-05-16T10:00:13.387Z,10.67
2019-05-16T10:02:40.145Z,10.68
2019-05-16T10:05:13.370Z,10.70
2019-05-16T10:07:38.534Z,10.48
2019-05-16T10:10:06.490Z,10.60
2019-05-16T10:12:33.456Z,10.71
2019-05-16T10:15:00.351Z,10.72
2019-05-16T10:17:27.420Z,10.72
2019-05-16T10:19:56.477Z,10.78
2019-05-16T10:22:22.973Z,10.77
2019-05-16T10:24:50.047Z,10.91
2019-05-16T10:27:17.279Z,10.98
2019-05-16T10:29:44.120Z,11.06
2019-05-16T10:32:10.991Z,11.30
2019-05-16T10:34:38.137Z,11.35
2019-05-16T10:37:04.890Z,11.54
2019-05-16T10:39:32.102Z,11.76
2019-05-16T10:41:58.852Z,11.95
2019-05-16T10:44:28.097Z,12.16
2019-05-16T10:46:54.362Z,12.27
2019-05-16T10:49:33.343Z,12.27
2019-05-16T10:51:50.141Z,12.20
2019-05-16T10:54:18.326Z,12.08
2019-05-16T10:56:46.684Z,12.14
2019-05-16T10:59:53.329Z,12.00
2019-05-16T11:01:42.827Z,11.95
2019-05-16T11:04:10.792Z,11.84
2019-05-16T11:06:37.615Z,11.95
2019-05-16T11:09:06.524Z,11.80
2019-05-16T11:11:33.551Z,11.89
2019-05-16T11:14:00.686Z,11.89
2019-05-16T11:16:27.738Z,11.80
2019-05-16T11:18:54.641Z,11.90
2019-05-16T11:21:21.991Z,11.91
2019-05-16T11:23:49.198Z,11.99
2019-05-16T11:26:16.102Z,12.02
2019-05-16T11:28:42.861Z,11.92
2019-05-16T11:31:09.635Z,12.09
2019-05-16T11:33:37.002Z,11.87
2019-05-16T11:36:07.420Z,11.97
2019-05-16T11:38:34.251Z,11.86
2019-05-16T11:41:01.552Z,12.04
2019-05-16T11:43:28.662Z,12.00
2019-05-16T11:45:57.397Z,12.12
2019-05-16T11:48:25.417Z,12.34
2019-05-16T11:50:52.895Z,12.42
2019-05-16T11:53:20.299Z,12.55
2019-05-16T11:55:55.175Z,12.75
2019-05-16T11:58:17.959Z,12.71
2019-05-16T12:00:47.890Z,12.82
2019-05-16T12:03:13.842Z,12.65
2019-05-16T12:05:40.621Z,12.49
2019-05-16T12:08:07.983Z,12.60
2019-05-16T12:10:36.316Z,12.38
2019-05-16T12:13:03.342Z,12.44
2019-05-16T12:15:30.339Z,12.47
2019-05-16T12:18:02.004Z,12.43
2019-05-16T12:20:27.384Z,12.36
2019-05-16T12:22:54.340Z,12.52
2019-05-16T12:25:21.132Z,12.48
2019-05-16T12:27:48.209Z,12.31
2019-05-16T12:30:17.661Z,12.55
2019-05-16T12:32:46.874Z,12.62
2019-05-16T12:35:13.121Z,12.53
2019-05-16T12:37:39.835Z,12.53
2019-05-16T12:40:07.193Z,12.32
2019-05-16T12:42:36.337Z,12.43
2019-05-16T12:45:03.013Z,12.39
2019-05-16T12:47:29.823Z,12.34
2019-05-16T12:49:56.763Z,12.39
2019-05-16T12:52:23.931Z,12.38
2019-05-16T12:54:50.670Z,12.38
2019-05-16T12:57:18.325Z,12.13
2019-05-16T12:59:50.111Z,11.92
2019-05-16T13:02:13.850Z,11.96
2019-05-16T13:04:47.061Z,11.94
2019-05-16T13:07:13.989Z,11.78
2019-05-16T13:09:41.115Z,11.88
2019-05-16T13:12:08.465Z,12.02
2019-05-16T13:14:39.711Z,12.04
2019-05-16T13:17:04.005Z,12.21
2019-05-16T13:19:33.210Z,12.03
2019-05-16T13:21:59.569Z,12.02
2019-05-16T13:24:27.846Z,12.09
2019-05-16T13:26:57.034Z,11.88
2019-05-16T13:29:23.774Z,11.86
2019-05-16T13:31:50.626Z,11.72
2019-05-16T13:34:17.891Z,11.88
2019-05-16T13:36:50.513Z,11.92
2019-05-16T13:39:17.427Z,12.02
2019-05-16T13:41:44.429Z,12.19
2019-05-16T13:44:18.523Z,12.13
2019-05-16T13:46:39.857Z,12.12
2019-05-16T13:49:07.232Z,12.24
2019-05-16T13:51:34.281Z,12.39
2019-05-16T13:54:01.350Z,12.24
2019-05-16T13:56:28.188Z,12.35
2019-05-16T13:58:57.005Z,12.15
2019-05-16T14:01:24.196Z,12.02
2019-05-16T14:03:51.023Z,11.75
2019-05-16T14:06:18.708Z,11.85
2019-05-16T14:08:46.811Z,11.79
2019-05-16T14:11:14.130Z,11.87
2019-05-16T14:13:41.958Z,11.77
2019-05-16T14:16:08.770Z,11.78
2019-05-16T14:18:37.902Z,11.85
2019-05-16T14:21:06.750Z,11.85
2019-05-16T14:23:32.984Z,11.86
2019-05-16T14:25:59.795Z,11.86
2019-05-16T14:28:26.578Z,12.03
2019-05-16T14:30:53.698Z,11.93
2019-05-16T14:33:20.587Z,11.88
2019-05-16T14:35:47.509Z,11.94
2019-05-16T14:38:17.327Z,12.02
2019-05-16T14:40:43.116Z,11.95
2019-05-16T14:43:09.848Z,12.08
2019-05-16T14:45:37.175Z,12.05
2019-05-16T14:48:07.174Z,12.12
2019-05-16T14:50:32.963Z,12.07
2019-05-16T14:52:59.745Z,12.10
2019-05-16T14:55:27.382Z,12.14
2019-05-16T14:57:56.587Z,12.11
2019-05-16T15:00:23.114Z,12.11
2019-05-16T15:02:49.854Z,11.98
2019-05-16T15:05:16.782Z,12.11
2019-05-16T15:07:43.580Z,11.97
2019-05-16T15:10:12.907Z,11.95
2019-05-16T15:12:39.926Z,11.90
2019-05-16T15:15:17.348Z,11.98
2019-05-16T15:17:35.957Z,11.92
2019-05-16T15:20:03.023Z,11.99
2019-05-16T15:22:29.877Z,12.21
2019-05-16T15:24:59.165Z,12.12
2019-05-16T15:27:26.278Z,12.06
2019-05-16T15:29:53.418Z,12.06
2019-05-16T15:32:20.305Z,12.25
2019-05-16T15:34:47.699Z,12.25
2019-05-16T15:37:17.214Z,12.23
2019-05-16T15:39:47.362Z,12.19
2019-05-16T15:42:17.695Z,12.18
2019-05-16T15:44:42.999Z,12.04
2019-05-16T15:47:09.821Z,12.08
2019-05-16T15:49:38.466Z,12.01
2019-05-16T15:52:07.280Z,12.05
2019-05-16T15:54:37.489Z,12.21
2019-05-16T15:57:06.772Z,12.09
2019-05-16T15:59:34.069Z,12.03
2019-05-16T16:02:02.478Z,12.17
2019-05-16T16:04:29.808Z,12.20
2019-05-16T16:06:56.791Z,12.11
2019-05-16T16:09:23.546Z,12.24
2019-05-16T16:11:50.471Z,12.15
2019-05-16T16:14:20.535Z,12.33
2019-05-16T16:16:48.106Z,12.25
2019-05-16T16:19:17.467Z,12.18
2019-05-16T16:21:47.063Z,12.14
2019-05-16T16:24:13.103Z,12.26
2019-05-16T16:26:40.030Z,12.39
2019-05-16T16:29:08.058Z,12.49
2019-05-16T16:31:36.866Z,12.59
2019-05-16T16:34:03.616Z,12.62
2019-05-16T16:36:30.626Z,12.65
2019-05-16T16:38:57.401Z,12.44
2019-05-16T16:41:27.100Z,12.62
2019-05-16T16:43:53.573Z,12.60
2019-05-16T16:46:22.565Z,12.58
2019-05-16T16:48:49.366Z,12.67
2019-05-16T16:51:17.607Z,12.71
2019-05-16T16:53:46.873Z,12.60
2019-05-16T16:56:17.016Z,12.55
2019-05-16T16:58:46.344Z,12.56
2019-05-16T17:01:12.775Z,12.57
2019-05-16T17:03:39.660Z,12.59
2019-05-16T17:06:06.464Z,12.40
2019-05-16T17:08:33.336Z,12.47
2019-05-16T17:11:00.253Z,12.48
2019-05-16T17:13:27.565Z,12.33
2019-05-16T17:15:56.896Z,12.19
2019-05-16T17:18:23.312Z,12.20
2019-05-16T17:20:50.561Z,12.23
2019-05-16T17:23:17.582Z,12.23
2019-05-16T17:25:46.996Z,12.28
2019-05-16T17:28:20.427Z,12.17
2019-05-16T17:30:47.385Z,12.19
2019-05-16T17:33:17.849Z,12.25
2019-05-16T17:35:43.681Z,12.25
2019-05-16T17:38:10.635Z,12.27
2019-05-16T17:40:59.414Z,12.29
2019-05-16T17:43:27.016Z,12.33
2019-05-16T17:45:54.054Z,12.30
2019-05-16T17:48:21.205Z,12.20
2019-05-16T17:50:48.464Z,12.16
2019-05-16T17:53:17.314Z,12.27
2019-05-16T17:55:44.172Z,12.10
2019-05-16T17:58:11.065Z,12.11
2019-05-16T18:00:38.072Z,12.18
2019-05-16T18:03:06.672Z,12.15
2019-05-16T18:05:33.648Z,12.00
2019-05-16T18:08:01.588Z,12.10
2019-05-16T18:10:28.347Z,12.12
2019-05-16T18:12:56.827Z,11.95
2019-05-16T18:15:24.081Z,11.91
2019-05-16T18:17:51.004Z,11.94
2019-05-16T18:20:22.163Z,12.00
2019-05-16T18:22:47.703Z,11.87
2019-05-16T18:25:16.358Z,11.91
2019-05-16T18:27:43.359Z,11.94
2019-05-16T18:30:10.418Z,12.02
2019-05-16T18:32:37.522Z,11.98
2019-05-16T18:35:04.324Z,11.91
2019-05-16T18:37:33.384Z,11.94
2019-05-16T18:39:59.923Z,11.94
2019-05-16T18:42:27.569Z,11.95
2019-05-16T18:44:56.452Z,11.94
2019-05-16T18:47:23.509Z,11.83
2019-05-16T18:49:50.596Z,11.87
2019-05-16T18:52:17.498Z,11.93
2019-05-16T18:54:46.668Z,11.80
2019-05-16T18:57:13.881Z,11.85
2019-05-16T18:59:41.116Z,11.83
2019-05-16T19:02:10.367Z,11.89
2019-05-16T19:04:37.900Z,11.79
2019-05-16T19:07:07.626Z,11.79
2019-05-16T19:09:34.462Z,11.83
2019-05-16T19:12:01.314Z,11.82
2019-05-16T19:14:28.247Z,11.81
2019-05-16T19:16:56.699Z,11.81
2019-05-16T19:19:25.546Z,11.81
2019-05-16T19:21:52.619Z,11.84
2019-05-16T19:24:19.414Z,11.62
2019-05-16T19:26:47.102Z,11.55
2019-05-16T19:29:13.970Z,11.66
2019-05-16T19:31:41.576Z,11.70
2019-05-16T19:34:08.405Z,11.54
2019-05-16T19:36:36.192Z,11.64
2019-05-16T19:39:06.324Z,11.66
2019-05-16T19:41:33.441Z,11.65
2019-05-16T19:44:00.298Z,11.65
2019-05-16T19:46:27.870Z,11.65
2019-05-16T19:48:56.924Z,11.64
2019-05-16T19:51:23.341Z,11.66
2019-05-16T19:53:50.403Z,11.50
2019-05-16T19:56:17.916Z,11.42
2019-05-16T19:58:46.652Z,11.31
2019-05-16T20:01:13.589Z,11.15
2019-05-16T20:03:40.485Z,10.98
2019-05-16T20:06:07.700Z,10.87
2019-05-16T20:08:34.559Z,10.72
2019-05-16T20:11:01.463Z,10.57
2019-05-16T20:13:28.359Z,10.43
2019-05-16T20:15:56.557Z,10.35
2019-05-16T20:18:23.414Z,10.23
2019-05-16T20:20:50.243Z,10.18
2019-05-16T20:23:18.634Z,10.14
2019-05-16T20:25:47.059Z,10.12
2019-05-16T20:28:14.088Z,10.08
2019-05-16T20:30:53.445Z,10.04
2019-05-16T20:33:20.865Z,9.95
2019-05-16T20:35:47.811Z,9.90
2019-05-16T20:38:14.703Z,9.83
2019-05-16T20:40:41.574Z,9.74
2019-05-16T20:43:08.433Z,9.64
2019-05-16T20:45:36.151Z,9.63
2019-05-16T20:48:14.701Z,9.50
2019-05-16T20:50:36.290Z,9.42
2019-05-16T20:53:03.436Z,9.33
2019-05-16T20:55:30.231Z,9.24
2019-05-16T20:57:57.583Z,9.17
2019-05-16T21:00:26.736Z,9.07
2019-05-16T21:02:53.076Z,9.02
2019-05-16T21:05:20.102Z,8.92
2019-05-16T21:07:48.860Z,8.82
2019-05-16T21:10:17.090Z,8.74
2019-05-16T21:12:43.843Z,8.73
2019-05-16T21:15:10.858Z,8.64
2019-05-16T21:17:37.626Z,8.55
2019-05-16T21:20:07.984Z,8.46
2019-05-16T21:22:37.143Z,8.42
2019-05-16T21:25:03.800Z,8.35
2019-05-16T21:27:31.103Z,8.29
2019-05-16T21:29:58.255Z,8.27
2019-05-16T21:32:27.035Z,8.27
2019-05-16T21:34:56.397Z,8.26
2019-05-16T21:37:22.942Z,8.31
2019-05-16T21:39:49.709Z,8.27
2019-05-16T21:42:16.870Z,8.26
2019-05-16T21:44:46.533Z,8.26
2019-05-16T21:47:13.008Z,8.26
2019-05-16T21:49:39.909Z,8.22
2019-05-16T21:52:06.793Z,8.18
2019-05-16T21:54:33.633Z,8.16
2019-05-16T21:57:00.793Z,8.10
2019-05-16T21:59:28.866Z,8.03
2019-05-16T22:01:56.595Z,7.99
2019-05-16T22:04:23.630Z,7.95
2019-05-16T22:06:50.396Z,7.89
2019-05-16T22:09:17.255Z,7.84
2019-05-16T22:11:46.421Z,7.80
2019-05-16T22:14:12.802Z,7.77
2019-05-16T22:16:39.799Z,7.73
2019-05-16T22:19:07.063Z,7.67
2019-05-16T22:21:34.076Z,7.68
2019-05-16T22:24:02.529Z,7.63
2019-05-16T22:26:29.292Z,7.60
2019-05-16T22:28:57.474Z,7.61
2019-05-16T22:31:26.864Z,7.58
2019-05-16T22:33:58.413Z,7.59
2019-05-16T22:36:26.571Z,7.60
2019-05-16T22:38:54.258Z,7.65
2019-05-16T22:41:21.303Z,7.68
2019-05-16T22:43:48.096Z,7.71
2019-05-16T22:46:17.487Z,7.71
2019-05-16T22:48:43.867Z,7.67
2019-05-16T22:51:10.764Z,7.65
2019-05-16T22:53:37.900Z,7.63
2019-05-16T22:56:07.248Z,7.57
2019-05-16T22:58:33.803Z,7.54
2019-05-16T23:01:00.886Z,7.58
2019-05-16T23:03:27.971Z,7.62
2019-05-16T23:05:56.570Z,7.60
2019-05-16T23:08:23.482Z,7.51
2019-05-16T23:10:50.375Z,7.53
2019-05-16T23:13:17.180Z,7.49
2019-05-16T23:15:44.039Z,7.41
2019-05-16T23:18:10.866Z,7.28
2019-05-16T23:20:37.903Z,7.14
2019-05-16T23:23:07.182Z,7.10
2019-05-16T23:25:36.885Z,7.18
2019-05-16T23:28:03.434Z,7.04
2019-05-16T23:30:30.289Z,6.95
2019-05-16T23:32:57.478Z,7.08
2019-05-16T23:35:26.698Z,7.10
2019-05-16T23:37:53.167Z,7.20
2019-05-16T23:40:20.923Z,7.10
2019-05-16T23:42:48.301Z,7.02
2019-05-16T23:45:17.197Z,7.06
2019-05-16T23:47:44.009Z,7.16
2019-05-16T23:50:11.001Z,7.17
2019-05-16T23:52:37.867Z,7.27
2019-05-16T23:55:07.871Z,7.12
2019-05-16T23:57:33.693Z,7.25
